Langdon, Kansas
Current Conditions -  °F | °C
As of 10:15 AM on Friday 19 Dec 2014 (Local Time) from KPTT Reporting Station
Haze Haze  
Wind Chill: 26°   Ceiling: 500
Heat Index: 34°   Visibility: 4mi
Dew Point: 32°   Wind: 9mph
Humidity: 93%   Direction: 190°S
Pressure: 30.23"   Gusts: NA
Location:  37.8171°N, 98.3602°W
Report Text: KPTT 191615Z AUTO 19008KT 4SM BR OVC005 01/00 A3023 RMK AO2
Loading
Personal Weather Stations






























Interactive Weather Map New forecast layout! Learn more

10-Day Weather Forecast

Advertisements
Track Severe Weather on mobile